Time;durP1;ratioP1;P1;durP2;ratioP2;P2;SDS_P1;SDS_P2;PMS_P1;PMS_P2;Temp;Humidity;BMP_temperature;BMP_pressure;BME280_temperature;BME280_humidity;BME280_pressure;Samples;Min_cycle;Max_cycle;Signal;HPM_P1;HPM_P2
2021/12/29 00:01:39;;;;;;;6.27;3.53;;;5.70;99.90;;;;;;5049323;28;20231;-67
2021/12/29 00:04:06;;;;;;;6.40;3.93;;;5.50;99.90;;;;;;5049925;28;20195;-67
2021/12/29 00:06:33;;;;;;;7.20;3.30;;;5.50;99.90;;;;;;5047723;28;20198;-66
2021/12/29 00:09:02;;;;;;;8.50;3.07;;;5.40;99.90;;;;;;5050661;28;20234;-66
2021/12/29 00:11:29;;;;;;;9.13;3.60;;;5.20;99.90;;;;;;5049039;28;20218;-67
2021/12/29 00:13:58;;;;;;;6.33;3.70;;;5.20;99.90;;;;;;5050176;28;20261;-67
2021/12/29 00:16:25;;;;;;;10.87;3.90;;;5.20;99.90;;;;;;5050216;28;20209;-66
2021/12/29 00:18:52;;;;;;;7.50;3.23;;;5.00;99.90;;;;;;5050048;28;20639;-66
2021/12/29 00:21:19;;;;;;;7.30;3.40;;;5.10;99.90;;;;;;5049622;28;20712;-66
2021/12/29 00:23:46;;;;;;;5.63;3.10;;;4.90;99.90;;;;;;5049574;28;20231;-66
2021/12/29 00:26:14;;;;;;;6.37;3.17;;;4.90;99.90;;;;;;5048243;28;20199;-67
2021/12/29 00:28:41;;;;;;;7.53;3.97;;;4.90;99.90;;;;;;5052586;28;20237;-66
2021/12/29 00:31:08;;;;;;;5.00;3.00;;;5.00;99.90;;;;;;5049657;28;20234;-66
2021/12/29 00:33:35;;;;;;;4.30;2.70;;;4.90;99.90;;;;;;5049465;28;20198;-66
2021/12/29 00:36:03;;;;;;;7.03;3.47;;;4.80;99.90;;;;;;5050055;28;20203;-66
2021/12/29 00:38:30;;;;;;;6.80;3.77;;;4.80;99.90;;;;;;5049756;28;20199;-66
2021/12/29 00:40:57;;;;;;;7.80;4.10;;;4.90;99.90;;;;;;5049749;28;20254;-66
2021/12/29 00:43:25;;;;;;;10.77;3.97;;;5.00;99.90;;;;;;5049229;28;20257;-67
2021/12/29 00:45:52;;;;;;;10.10;5.23;;;5.10;99.90;;;;;;5050119;28;20611;-66
2021/12/29 00:48:20;;;;;;;8.97;5.30;;;5.30;99.90;;;;;;5049753;28;20546;-66
2021/12/29 00:50:49;;;;;;;12.07;5.83;;;5.40;99.90;;;;;;5049721;28;20238;-67
2021/12/29 00:53:16;;;;;;;9.77;5.30;;;5.50;99.90;;;;;;5049123;28;20245;-66
2021/12/29 00:55:43;;;;;;;11.77;5.63;;;5.40;99.90;;;;;;5049621;28;20673;-67
2021/12/29 00:58:10;;;;;;;15.27;7.13;;;5.60;99.90;;;;;;5048904;28;20203;-66
2021/12/29 01:00:40;;;;;;;13.03;6.20;;;5.60;99.90;;;;;;5048255;28;20219;-67
2021/12/29 01:03:08;;;;;;;14.40;7.40;;;5.60;99.90;;;;;;5049499;28;20657;-66
2021/12/29 01:05:35;;;;;;;11.73;6.00;;;5.60;99.90;;;;;;5049141;28;20611;-66
2021/12/29 01:08:02;;;;;;;17.33;7.87;;;5.50;99.90;;;;;;5049740;28;20238;-79
2021/12/29 01:10:29;;;;;;;14.40;6.77;;;5.60;99.90;;;;;;5046928;28;20688;-72
2021/12/29 01:12:59;;;;;;;13.83;7.37;;;5.70;99.90;;;;;;5048425;28;20256;-72
2021/12/29 01:15:33;;;;;;;14.03;8.17;;;5.60;99.90;;;;;;5049246;28;20203;-72
2021/12/29 01:18:06;;;;;;;15.30;9.03;;;5.60;99.90;;;;;;5048649;28;20249;-72
2021/12/29 01:20:34;;;;;;;18.13;8.27;;;5.60;99.90;;;;;;5048042;28;21110;-72
2021/12/29 01:23:01;;;;;;;15.50;8.37;;;5.70;99.90;;;;;;5051082;28;20669;-72
2021/12/29 01:25:29;;;;;;;12.57;8.07;;;5.60;99.90;;;;;;5052980;28;20191;-72
2021/12/29 01:27:55;;;;;;;15.93;8.00;;;5.60;99.90;;;;;;5053421;28;20286;-72
2021/12/29 01:30:22;;;;;;;15.83;8.07;;;5.50;99.90;;;;;;5053630;28;20207;-68
2021/12/29 01:32:49;;;;;;;15.77;8.57;;;5.50;99.90;;;;;;5051499;28;20860;-68
2021/12/29 01:35:18;;;;;;;16.60;8.50;;;5.50;99.90;;;;;;5053227;28;20206;-68
2021/12/29 01:37:45;;;;;;;16.40;8.40;;;5.50;99.90;;;;;;5052553;28;20277;-68
2021/12/29 01:40:17;;;;;;;17.00;9.83;;;5.50;99.90;;;;;;5053379;28;20610;-68
2021/12/29 01:42:44;;;;;;;19.27;9.90;;;5.50;99.90;;;;;;5052254;28;20285;-68
2021/12/29 01:45:12;;;;;;;19.40;10.17;;;5.50;99.90;;;;;;5053355;28;20195;-68
2021/12/29 01:47:40;;;;;;;17.30;9.57;;;5.50;99.90;;;;;;5054090;28;20472;-68
2021/12/29 01:50:10;;;;;;;19.00;9.83;;;5.60;99.90;;;;;;5054727;28;20241;-68
2021/12/29 01:52:40;;;;;;;20.30;10.37;;;5.60;99.90;;;;;;5053563;28;20214;-68
2021/12/29 01:55:11;;;;;;;19.50;10.10;;;5.70;99.90;;;;;;5054793;28;20302;-68
2021/12/29 01:57:39;;;;;;;18.10;9.93;;;5.90;99.90;;;;;;5052718;28;20253;-68
2021/12/29 02:00:09;;;;;;;18.53;9.27;;;5.80;99.90;;;;;;5050783;28;20195;-68
2021/12/29 02:02:36;;;;;;;20.17;10.50;;;5.70;99.90;;;;;;5054140;28;20289;-68
2021/12/29 02:05:03;;;;;;;19.50;10.33;;;5.70;99.90;;;;;;5054004;28;20203;-68
2021/12/29 02:07:30;;;;;;;14.43;8.30;;;5.70;99.90;;;;;;5053184;28;20632;-68
2021/12/29 02:09:59;;;;;;;18.37;9.73;;;5.60;99.90;;;;;;5053980;28;20637;-68
2021/12/29 02:12:26;;;;;;;20.93;10.87;;;5.60;99.90;;;;;;5053916;28;20206;-68
2021/12/29 02:14:53;;;;;;;19.23;9.60;;;5.70;99.90;;;;;;5052977;28;20203;-68
2021/12/29 02:17:20;;;;;;;22.57;11.20;;;5.50;99.90;;;;;;5051301;28;20253;-68
2021/12/29 02:19:48;;;;;;;19.70;10.53;;;5.70;99.90;;;;;;5052215;28;20195;-68
2021/12/29 02:22:32;;;;;;;19.90;10.37;;;5.80;99.90;;;;;;5053172;28;20225;-68
2021/12/29 02:25:19;;;;;;;20.90;11.10;;;5.70;99.90;;;;;;5048095;28;20265;-68
2021/12/29 02:27:48;;;;;;;20.97;11.43;;;5.70;99.90;;;;;;5051870;28;20210;-68
2021/12/29 02:30:17;;;;;;;21.80;11.53;;;5.80;99.90;;;;;;5053777;28;20269;-68
2021/12/29 02:32:45;;;;;;;18.43;10.40;;;5.80;99.90;;;;;;5052481;28;20206;-68
2021/12/29 02:35:15;;;;;;;21.23;11.30;;;5.80;99.90;;;;;;5053326;28;20202;-68
2021/12/29 02:37:43;;;;;;;24.83;13.10;;;5.80;99.90;;;;;;5051580;28;20195;-68
2021/12/29 02:40:11;;;;;;;25.43;13.27;;;6.00;99.90;;;;;;5053737;28;20764;-68
2021/12/29 02:42:40;;;;;;;21.07;11.83;;;5.90;99.90;;;;;;5051361;28;20225;-68
2021/12/29 02:45:11;;;;;;;21.17;12.17;;;5.90;99.90;;;;;;5050820;28;20213;-68
2021/12/29 02:47:38;;;;;;;22.10;12.10;;;5.90;99.90;;;;;;5051376;28;20195;-68
2021/12/29 02:50:06;;;;;;;22.87;13.37;;;5.90;99.90;;;;;;5052477;28;20262;-68
2021/12/29 02:52:33;;;;;;;19.67;11.47;;;5.90;99.90;;;;;;5050690;28;20253;-68
2021/12/29 02:55:02;;;;;;;21.20;11.97;;;5.90;99.90;;;;;;5052554;28;20195;-68
2021/12/29 02:57:28;;;;;;;22.70;13.07;;;6.00;99.90;;;;;;5052829;28;20199;-68
2021/12/29 02:59:55;;;;;;;21.33;12.10;;;6.00;99.90;;;;;;5051784;28;20562;-68
2021/12/29 03:02:22;;;;;;;20.47;11.53;;;6.10;99.90;;;;;;5052378;28;20284;-68
2021/12/29 03:04:49;;;;;;;19.70;11.30;;;6.00;99.90;;;;;;5051008;28;20203;-67
2021/12/29 03:07:16;;;;;;;20.73;12.13;;;5.90;99.90;;;;;;5053170;28;20203;-68
2021/12/29 03:09:43;;;;;;;20.07;11.47;;;6.00;99.90;;;;;;5052854;28;20641;-67
2021/12/29 03:12:12;;;;;;;22.50;11.83;;;6.00;99.90;;;;;;5052149;28;20269;-67
2021/12/29 03:14:39;;;;;;;21.60;12.00;;;6.00;99.90;;;;;;5051652;28;20650;-68
2021/12/29 03:17:06;;;;;;;22.50;12.10;;;6.10;99.90;;;;;;5052548;28;20203;-67
2021/12/29 03:19:33;;;;;;;22.00;12.80;;;6.10;99.90;;;;;;5052733;28;20238;-68
2021/12/29 03:22:00;;;;;;;23.00;12.83;;;6.10;99.90;;;;;;5051043;28;20227;-68
2021/12/29 03:24:27;;;;;;;24.20;13.77;;;6.10;99.90;;;;;;5052440;28;20231;-68
2021/12/29 03:26:54;;;;;;;27.60;14.80;;;6.20;99.90;;;;;;5051157;28;20199;-68
2021/12/29 03:29:22;;;;;;;25.90;12.87;;;6.20;99.90;;;;;;5052359;28;20199;-68
2021/12/29 03:31:50;;;;;;;23.57;13.97;;;6.20;99.90;;;;;;5050330;28;20203;-68
2021/12/29 03:34:17;;;;;;;27.13;14.13;;;6.20;99.90;;;;;;5052485;28;20211;-68
2021/12/29 03:36:44;;;;;;;28.03;14.10;;;6.20;99.90;;;;;;5052136;28;20276;-68
2021/12/29 03:39:11;;;;;;;29.80;15.17;;;6.10;99.90;;;;;;5052736;28;20261;-68
2021/12/29 03:41:38;;;;;;;25.07;13.63;;;6.10;99.90;;;;;;5050511;28;20215;-67
2021/12/29 03:44:05;;;;;;;27.33;13.17;;;6.20;99.90;;;;;;5050667;28;20633;-68
2021/12/29 03:46:36;;;;;;;25.10;13.80;;;6.20;99.90;;;;;;5050678;28;20241;-68
2021/12/29 03:49:03;;;;;;;26.67;14.67;;;6.10;99.90;;;;;;5049942;28;20621;-68
2021/12/29 03:51:30;;;;;;;26.53;13.90;;;6.20;99.90;;;;;;5050712;28;20601;-68
2021/12/29 03:53:58;;;;;;;26.63;15.17;;;6.10;99.90;;;;;;5050703;28;20227;-68
2021/12/29 03:56:25;;;;;;;28.43;14.37;;;6.10;99.90;;;;;;5051300;28;20261;-67
2021/12/29 03:58:52;;;;;;;32.33;15.97;;;6.20;99.90;;;;;;5051616;28;20673;-67
2021/12/29 04:01:20;;;;;;;26.93;15.03;;;6.20;99.90;;;;;;5051412;28;20628;-68
2021/12/29 04:03:49;;;;;;;24.10;12.13;;;6.20;99.90;;;;;;5049853;28;20207;-67
2021/12/29 04:06:18;;;;;;;26.40;14.37;;;6.20;99.90;;;;;;5052032;28;20203;-68
2021/12/29 04:08:45;;;;;;;26.73;14.13;;;6.20;99.90;;;;;;5051653;28;20210;-67
2021/12/29 04:11:13;;;;;;;26.77;14.77;;;6.10;99.90;;;;;;5051727;28;20203;-68
2021/12/29 04:13:40;;;;;;;26.67;13.87;;;6.10;99.90;;;;;;5050685;28;20247;-68
2021/12/29 04:16:15;;;;;;;25.17;14.20;;;6.20;99.90;;;;;;5050581;28;20195;-68
2021/12/29 04:18:55;;;;;;;25.17;13.00;;;6.10;99.90;;;;;;5051390;28;20203;-68
2021/12/29 04:21:24;;;;;;;23.63;13.07;;;6.10;99.90;;;;;;5050744;28;20264;-67
2021/12/29 04:23:50;;;;;;;22.13;12.60;;;6.10;99.90;;;;;;5051233;28;20605;-68
2021/12/29 04:26:19;;;;;;;24.13;12.90;;;6.00;99.90;;;;;;5049966;28;20718;-68
2021/12/29 04:28:47;;;;;;;24.27;12.80;;;6.10;99.90;;;;;;5054964;28;20206;-68
2021/12/29 04:31:14;;;;;;;24.60;12.77;;;6.00;99.90;;;;;;5051326;28;20203;-68
2021/12/29 04:33:41;;;;;;;24.30;12.57;;;6.00;99.90;;;;;;5050188;28;20206;-68
2021/12/29 04:36:09;;;;;;;25.67;13.33;;;6.00;99.90;;;;;;5051889;28;20256;-78
2021/12/29 04:38:37;;;;;;;23.53;12.20;;;6.00;99.90;;;;;;5051687;28;20203;-80
2021/12/29 04:41:05;;;;;;;21.97;11.67;;;6.00;99.90;;;;;;5052503;28;20275;-78
2021/12/29 04:43:32;;;;;;;24.57;12.70;;;6.00;99.90;;;;;;5049626;28;20262;-78
2021/12/29 04:45:59;;;;;;;22.63;11.60;;;6.10;99.90;;;;;;5051920;28;20230;-79
2021/12/29 04:48:28;;;;;;;21.70;11.43;;;6.10;99.90;;;;;;5050928;28;20207;-79
2021/12/29 04:51:04;;;;;;;23.23;12.53;;;6.20;99.90;;;;;;5040621;28;20638;-78
2021/12/29 04:53:33;;;;;;;22.00;12.20;;;6.20;99.90;;;;;;5047832;28;20210;-78
2021/12/29 04:56:01;;;;;;;22.30;11.80;;;6.20;99.90;;;;;;5050286;28;20253;-79
2021/12/29 04:58:28;;;;;;;19.97;10.97;;;6.20;99.90;;;;;;5051455;28;20229;-79
2021/12/29 05:00:55;;;;;;;22.67;11.43;;;6.30;99.90;;;;;;5051689;28;20256;-79
2021/12/29 05:03:24;;;;;;;20.87;10.50;;;6.30;99.90;;;;;;5051644;28;20231;-79
2021/12/29 05:08:24;;;;;;;20.60;11.20;;;6.30;99.90;;;;;;5050528;28;20199;-78
2021/12/29 05:08:41;;;;;;;23.93;11.20;;;6.30;99.90;;;;;;5051834;28;20633;-79
2021/12/29 05:11:15;;;;;;;20.47;10.10;;;6.20;99.90;;;;;;5050533;28;20187;-78
2021/12/29 05:13:43;;;;;;;20.03;9.93;;;6.30;99.90;;;;;;5052465;28;20336;-79
2021/12/29 05:16:11;;;;;;;17.77;9.90;;;6.30;99.90;;;;;;5048108;28;20191;-79
2021/12/29 05:18:39;;;;;;;21.93;11.13;;;6.40;99.90;;;;;;5052130;28;20261;-78
2021/12/29 05:21:08;;;;;;;19.20;10.23;;;6.50;99.90;;;;;;5051142;28;20238;-78
2021/12/29 05:23:35;;;;;;;19.93;10.80;;;6.50;99.90;;;;;;5052141;28;20243;-79
2021/12/29 05:26:03;;;;;;;20.33;10.83;;;6.60;99.90;;;;;;5051736;28;20256;-79
2021/12/29 05:28:31;;;;;;;19.17;10.10;;;6.60;99.90;;;;;;5051962;28;20276;-78
2021/12/29 05:30:58;;;;;;;18.63;9.60;;;6.60;99.90;;;;;;5051952;28;20257;-78
2021/12/29 05:33:25;;;;;;;20.17;10.37;;;6.60;99.90;;;;;;5051966;28;20199;-79
2021/12/29 05:35:52;;;;;;;18.27;10.20;;;6.70;99.90;;;;;;5051751;28;20248;-78
2021/12/29 05:38:20;;;;;;;20.23;9.80;;;6.60;99.90;;;;;;5051343;28;20188;-79
2021/12/29 05:40:48;;;;;;;18.50;10.07;;;6.70;99.90;;;;;;5051945;28;20249;-78
2021/12/29 05:43:15;;;;;;;16.93;9.37;;;6.60;99.90;;;;;;5050663;28;20230;-79
2021/12/29 05:45:44;;;;;;;20.10;9.87;;;6.60;99.90;;;;;;5050927;28;20245;-79
2021/12/29 05:48:11;;;;;;;17.10;9.07;;;6.60;99.90;;;;;;5050629;28;20249;-78
2021/12/29 05:50:38;;;;;;;17.37;9.53;;;6.50;99.90;;;;;;5050689;28;20273;-79
2021/12/29 05:53:05;;;;;;;18.43;9.97;;;6.50;99.90;;;;;;5050973;28;20559;-78
2021/12/29 05:55:32;;;;;;;19.27;8.80;;;6.50;99.90;;;;;;5051541;28;20694;-79
2021/12/29 05:57:59;;;;;;;18.23;9.37;;;6.50;99.90;;;;;;5050636;28;20253;-79
2021/12/29 06:00:28;;;;;;;16.47;8.90;;;6.50;99.90;;;;;;5050710;28;20614;-78
2021/12/29 06:02:57;;;;;;;15.90;8.40;;;6.50;99.90;;;;;;5051378;28;20219;-78
2021/12/29 06:05:24;;;;;;;14.80;7.67;;;6.60;99.90;;;;;;5049895;28;20191;-79
2021/12/29 06:07:52;;;;;;;15.50;7.83;;;6.60;99.90;;;;;;5051304;28;20195;-77
2021/12/29 06:10:19;;;;;;;12.87;6.57;;;6.60;99.90;;;;;;5054364;28;20207;-78
2021/12/29 06:12:46;;;;;;;13.50;7.00;;;6.70;99.90;;;;;;5055090;28;20253;-78
2021/12/29 06:15:14;;;;;;;11.77;6.23;;;6.70;99.90;;;;;;5055362;28;20195;-78
2021/12/29 06:17:41;;;;;;;12.20;6.80;;;6.70;99.90;;;;;;5054252;28;20624;-78
2021/12/29 06:20:12;;;;;;;12.13;6.03;;;6.70;99.90;;;;;;5054356;28;20203;-78
2021/12/29 06:22:39;;;;;;;12.93;6.97;;;6.80;99.90;;;;;;5053027;28;20230;-78
2021/12/29 06:25:09;;;;;;;12.80;6.10;;;6.70;99.90;;;;;;5054896;28;20249;-78
2021/12/29 06:27:36;;;;;;;11.37;5.57;;;6.60;99.90;;;;;;5054971;28;20203;-78
2021/12/29 06:30:05;;;;;;;10.23;5.90;;;6.60;99.90;;;;;;5054396;28;20240;-79
2021/12/29 06:32:32;;;;;;;11.60;6.03;;;6.60;99.90;;;;;;5053301;28;20617;-79
2021/12/29 06:34:59;;;;;;;11.33;5.97;;;6.50;99.90;;;;;;5054416;28;20261;-78
2021/12/29 06:37:27;;;;;;;10.40;5.63;;;6.60;99.90;;;;;;5054570;28;20195;-79
2021/12/29 06:39:54;;;;;;;9.40;6.10;;;6.60;99.90;;;;;;5054421;28;20710;-78
2021/12/29 06:42:21;;;;;;;10.33;5.90;;;6.70;99.90;;;;;;5053852;28;20301;-78
2021/12/29 06:44:48;;;;;;;8.60;5.13;;;6.70;99.90;;;;;;5054486;28;20245;-79
2021/12/29 06:47:16;;;;;;;10.07;5.80;;;6.70;99.90;;;;;;5053733;28;20203;-78
2021/12/29 06:49:43;;;;;;;9.37;5.10;;;6.70;99.90;;;;;;5054540;28;20495;-79
2021/12/29 06:52:12;;;;;;;10.00;5.40;;;6.70;99.90;;;;;;5053704;28;20547;-78
2021/12/29 06:54:40;;;;;;;10.97;6.27;;;6.70;99.90;;;;;;5054471;28;20221;-79
2021/12/29 06:57:07;;;;;;;8.90;5.17;;;6.70;99.90;;;;;;5053837;28;20255;-78
2021/12/29 06:59:34;;;;;;;8.40;5.00;;;6.60;99.90;;;;;;5053986;28;20257;-79
2021/12/29 07:02:02;;;;;;;9.67;5.20;;;6.70;99.90;;;;;;5053994;28;20265;-79
2021/12/29 07:04:29;;;;;;;10.83;6.00;;;6.80;99.90;;;;;;5054512;28;20245;-80
2021/12/29 07:06:58;;;;;;;16.43;8.80;;;6.70;99.90;;;;;;5054525;28;20236;-79
2021/12/29 07:09:25;;;;;;;7.93;5.40;;;6.80;99.90;;;;;;5054335;28;20261;-79
2021/12/29 07:11:53;;;;;;;9.37;5.10;;;6.80;99.90;;;;;;5054045;28;20191;-79
2021/12/29 07:14:21;;;;;;;8.43;5.00;;;6.80;99.90;;;;;;5054326;28;20199;-78
2021/12/29 07:16:50;;;;;;;10.70;5.83;;;6.80;99.90;;;;;;5053272;28;20208;-78
2021/12/29 07:19:18;;;;;;;12.30;5.93;;;6.80;99.90;;;;;;5051161;28;20199;-79
2021/12/29 07:21:46;;;;;;;11.00;6.23;;;6.90;99.90;;;;;;5054216;28;20268;-78
2021/12/29 07:24:19;;;;;;;14.77;7.67;;;6.90;99.90;;;;;;5051127;28;20234;-79
2021/12/29 07:26:46;;;;;;;10.63;6.80;;;6.90;99.90;;;;;;5050797;28;20246;-79
2021/12/29 07:29:14;;;;;;;10.63;6.37;;;6.90;99.90;;;;;;5051374;28;20298;-78
2021/12/29 07:31:41;;;;;;;9.17;5.63;;;6.80;99.90;;;;;;5053885;28;20234;-79
2021/12/29 07:34:14;;;;;;;12.10;6.10;;;6.90;99.90;;;;;;5052842;28;20234;-79
2021/12/29 07:36:42;;;;;;;9.63;5.33;;;6.80;99.90;;;;;;5052277;28;20203;-78
2021/12/29 07:39:11;;;;;;;10.10;5.87;;;6.70;99.90;;;;;;5047434;28;20227;-78
2021/12/29 07:41:39;;;;;;;10.17;5.13;;;6.70;99.90;;;;;;5053271;28;20210;-78
2021/12/29 07:44:06;;;;;;;10.70;5.50;;;6.70;99.90;;;;;;5050022;28;20628;-80
2021/12/29 07:46:35;;;;;;;8.90;5.23;;;6.70;99.90;;;;;;5049536;28;20256;-78
2021/12/29 07:49:03;;;;;;;9.17;4.93;;;6.70;99.90;;;;;;5053029;28;20199;-79
2021/12/29 07:51:30;;;;;;;7.77;4.83;;;6.90;99.90;;;;;;5048051;28;20199;-79
2021/12/29 07:53:58;;;;;;;7.90;5.03;;;7.00;99.90;;;;;;5052810;28;20257;-79
2021/12/29 07:56:26;;;;;;;8.00;4.77;;;6.80;99.90;;;;;;5052808;28;20206;-79
2021/12/29 07:58:53;;;;;;;9.73;5.47;;;6.70;99.90;;;;;;5053633;28;20245;-78
2021/12/29 08:01:20;;;;;;;6.73;4.27;;;6.70;99.90;;;;;;5050832;28;20257;-78
2021/12/29 08:03:50;;;;;;;6.80;4.10;;;6.70;99.90;;;;;;5047241;28;20758;-79
2021/12/29 08:06:18;;;;;;;8.60;5.13;;;6.90;99.90;;;;;;5045063;28;20207;-66
2021/12/29 08:08:45;;;;;;;7.97;4.60;;;6.90;99.90;;;;;;5047168;28;20648;-79
2021/12/29 08:11:13;;;;;;;9.67;5.30;;;7.00;99.90;;;;;;5048993;28;20203;-78
2021/12/29 08:13:41;;;;;;;9.90;5.43;;;7.00;99.90;;;;;;5052640;28;20645;-78
2021/12/29 08:16:08;;;;;;;8.20;4.93;;;7.00;99.90;;;;;;5051431;28;20203;-79
2021/12/29 08:18:35;;;;;;;7.50;4.23;;;7.00;99.90;;;;;;5051306;28;20260;-79
2021/12/29 08:21:05;;;;;;;7.10;4.13;;;7.10;99.90;;;;;;5052708;28;20234;-79
2021/12/29 08:23:32;;;;;;;6.63;4.10;;;7.10;99.90;;;;;;5052287;28;20687;-79
2021/12/29 08:26:00;;;;;;;7.47;4.20;;;7.00;99.90;;;;;;5051853;28;20285;-79
2021/12/29 08:28:27;;;;;;;6.40;4.00;;;7.00;99.90;;;;;;5052348;28;20226;-78
2021/12/29 08:30:56;;;;;;;4.27;3.03;;;7.00;99.90;;;;;;5049503;28;20194;-79
2021/12/29 08:33:23;;;;;;;4.73;3.43;;;7.00;99.90;;;;;;5051513;28;20260;-78
2021/12/29 08:35:50;;;;;;;4.17;3.17;;;7.10;99.90;;;;;;5051848;28;20248;-79
2021/12/29 08:38:18;;;;;;;7.10;3.93;;;7.10;99.90;;;;;;5050794;28;20662;-79
2021/12/29 08:40:46;;;;;;;5.50;3.60;;;7.10;99.90;;;;;;5040841;28;20204;-79
2021/12/29 08:43:15;;;;;;;5.03;3.63;;;7.10;99.90;;;;;;5050476;28;20219;-79
2021/12/29 08:45:44;;;;;;;3.57;2.87;;;7.10;99.90;;;;;;5047886;28;20203;-79
2021/12/29 08:48:11;;;;;;;6.40;3.00;;;7.20;99.90;;;;;;5043544;28;20234;-79
2021/12/29 08:50:40;;;;;;;5.40;2.90;;;7.20;99.90;;;;;;5049801;28;20287;-79
2021/12/29 08:53:08;;;;;;;3.47;2.63;;;7.20;99.90;;;;;;5048014;28;20238;-79
2021/12/29 08:55:39;;;;;;;3.27;2.90;;;7.30;99.90;;;;;;5050034;28;20218;-80
2021/12/29 08:58:07;;;;;;;2.97;2.60;;;7.30;99.90;;;;;;5046594;28;20580;-79
2021/12/29 09:00:41;;;;;;;2.60;2.17;;;7.30;99.90;;;;;;5052774;28;20202;-79
2021/12/29 09:03:08;;;;;;;4.80;3.60;;;7.40;99.90;;;;;;5052371;28;20220;-80
2021/12/29 09:05:37;;;;;;;3.60;3.10;;;7.50;99.90;;;;;;5052787;28;20252;-79
2021/12/29 09:08:04;;;;;;;3.83;2.80;;;7.50;99.90;;;;;;5052691;28;20210;-79
2021/12/29 09:10:37;;;;;;;2.77;2.43;;;7.50;99.90;;;;;;5052644;28;20195;-80
2021/12/29 09:13:04;;;;;;;2.73;2.37;;;7.60;99.90;;;;;;5052271;28;20634;-79
2021/12/29 09:15:32;;;;;;;3.37;2.37;;;7.70;99.90;;;;;;5051755;28;20233;-79
2021/12/29 09:18:00;;;;;;;4.37;2.30;;;7.70;99.90;;;;;;5051797;28;20260;-79
2021/12/29 09:20:30;;;;;;;2.20;2.00;;;7.80;99.90;;;;;;5051750;28;20197;-80
2021/12/29 09:23:00;;;;;;;2.27;2.07;;;7.80;99.90;;;;;;5052465;28;20221;-79
2021/12/29 09:25:29;;;;;;;5.07;3.00;;;7.90;99.90;;;;;;5052213;28;20199;-80
2021/12/29 09:27:57;;;;;;;3.00;2.70;;;7.90;99.90;;;;;;5052171;28;20211;-79
2021/12/29 09:30:27;;;;;;;3.57;2.60;;;7.90;99.90;;;;;;5052393;28;20329;-79
2021/12/29 09:32:55;;;;;;;3.07;2.77;;;7.90;99.90;;;;;;5051711;28;20198;-79
2021/12/29 09:35:22;;;;;;;3.30;2.83;;;7.90;99.90;;;;;;5052223;28;20248;-79
2021/12/29 09:37:51;;;;;;;3.60;2.57;;;8.00;99.90;;;;;;5052092;28;20203;-79
2021/12/29 09:40:22;;;;;;;3.20;2.80;;;8.00;99.90;;;;;;5052280;28;20653;-79
2021/12/29 09:42:50;;;;;;;4.07;2.93;;;8.10;99.90;;;;;;5052671;28;20309;-80
2021/12/29 09:45:19;;;;;;;4.47;3.00;;;8.10;99.90;;;;;;5055657;28;20633;-79
2021/12/29 09:47:46;;;;;;;3.30;3.00;;;8.10;99.90;;;;;;5056484;28;20226;-79
2021/12/29 09:50:19;;;;;;;4.07;3.27;;;8.10;99.90;;;;;;5057080;28;20202;-80
2021/12/29 09:52:46;;;;;;;3.93;3.27;;;8.10;99.90;;;;;;5056868;28;20290;-79
2021/12/29 09:55:17;;;;;;;4.17;3.30;;;8.10;99.90;;;;;;5056517;28;20546;-79
2021/12/29 09:57:47;;;;;;;3.87;3.00;;;8.20;99.90;;;;;;5056877;28;20191;-80
2021/12/29 10:00:24;;;;;;;4.47;3.23;;;8.20;99.90;;;;;;5056516;28;20634;-79
2021/12/29 10:02:53;;;;;;;3.97;3.43;;;8.30;99.90;;;;;;5056081;28;20226;-80
2021/12/29 10:05:24;;;;;;;6.10;3.97;;;8.30;99.90;;;;;;5056683;28;20578;-80
2021/12/29 10:08:00;;;;;;;6.53;4.47;;;8.30;99.90;;;;;;5055326;28;20673;-80
2021/12/29 10:10:29;;;;;;;8.60;5.07;;;8.30;99.90;;;;;;5056375;28;20191;-79
2021/12/29 10:12:57;;;;;;;4.30;3.47;;;8.40;99.90;;;;;;5056586;28;20187;-80
2021/12/29 10:15:33;;;;;;;6.07;4.00;;;8.40;99.90;;;;;;5056637;28;20244;-79
2021/12/29 10:18:08;;;;;;;5.53;4.10;;;8.40;99.90;;;;;;5056446;28;20221;-80
2021/12/29 10:20:56;;;;;;;6.77;4.33;;;8.50;99.90;;;;;;5036656;28;20238;-80
2021/12/29 10:23:26;;;;;;;7.40;4.43;;;8.50;99.90;;;;;;5036435;28;20739;-80
2021/12/29 10:26:14;;;;;;;6.37;4.63;;;8.50;99.90;;;;;;5036595;28;20181;-79
2021/12/29 10:28:43;;;;;;;6.07;4.20;;;8.60;99.90;;;;;;5037014;28;20234;-79
2021/12/29 10:31:17;;;;;;;6.67;3.87;;;8.60;99.90;;;;;;5036501;28;20211;-80
2021/12/29 10:33:48;;;;;;;6.47;4.20;;;8.60;99.90;;;;;;5018281;28;20242;-79
2021/12/29 10:36:31;;;;;;;6.33;3.60;;;8.60;99.90;;;;;;5051124;28;20307;-80
2021/12/29 10:39:20;;;;;;;5.87;3.93;;;8.60;99.90;;;;;;5056540;28;20226;-80
2021/12/29 10:41:51;;;;;;;4.77;3.60;;;8.70;99.90;;;;;;5056156;28;20195;-80
2021/12/29 10:44:28;;;;;;;7.47;3.43;;;8.70;99.90;;;;;;5056200;28;20223;-79
2021/12/29 10:46:58;;;;;;;3.33;2.63;;;8.70;99.90;;;;;;5056148;28;20240;-80
2021/12/29 10:49:52;;;;;;;3.40;2.87;;;8.70;99.90;;;;;;5056361;28;20760;-80
2021/12/29 10:52:38;;;;;;;3.30;2.70;;;8.80;99.90;;;;;;5056059;28;20233;-79
2021/12/29 10:55:09;;;;;;;3.10;2.80;;;8.80;99.90;;;;;;5055593;28;20629;-79
2021/12/29 10:58:03;;;;;;;3.20;2.20;;;8.80;99.90;;;;;;5055987;28;20183;-80
2021/12/29 11:00:30;;;;;;;2.97;2.63;;;8.80;99.90;;;;;;5055715;28;20245;-80
2021/12/29 11:03:08;;;;;;;2.67;2.40;;;8.80;99.90;;;;;;5055333;28;20333;-79
2021/12/29 11:05:37;;;;;;;2.23;2.00;;;8.80;99.90;;;;;;5041304;28;20207;-79
2021/12/29 11:08:07;;;;;;;2.50;2.20;;;8.80;99.90;;;;;;5055489;28;20596;-80
2021/12/29 11:10:34;;;;;;;4.60;2.47;;;8.80;99.90;;;;;;5055642;28;20176;-80
2021/12/29 11:16:10;;;;;;;3.97;2.50;;;8.80;99.90;;;;;;5055888;28;20179;-80
2021/12/29 11:18:48;;;;;;;5.13;3.20;;;8.80;99.90;;;;;;5055712;28;20634;-79
2021/12/29 11:21:25;;;;;;;4.40;3.40;;;8.80;99.90;;;;;;5055644;28;20190;-79
2021/12/29 11:23:52;;;;;;;4.33;3.73;;;8.80;99.90;;;;;;5037499;28;20211;-79
2021/12/29 11:26:41;;;;;;;7.27;4.63;;;8.80;99.90;;;;;;5055435;28;20265;-79
2021/12/29 11:29:10;;;;;;;8.20;5.43;;;8.90;99.90;;;;;;5039999;28;20227;-80
2021/12/29 11:31:40;;;;;;;7.10;5.13;;;8.90;99.90;;;;;;5055205;28;20652;-79
2021/12/29 11:34:17;;;;;;;6.17;4.63;;;9.00;99.90;;;;;;5050570;28;20200;-74
2021/12/29 11:36:45;;;;;;;5.63;3.80;;;9.00;99.90;;;;;;5048769;28;20257;-74
2021/12/29 11:39:13;;;;;;;4.70;3.93;;;9.00;99.90;;;;;;5047115;28;20579;-74
2021/12/29 11:41:42;;;;;;;5.30;3.53;;;9.00;99.90;;;;;;5049875;28;20204;-74
2021/12/29 11:44:10;;;;;;;4.10;3.27;;;9.00;99.90;;;;;;5049390;28;20257;-74
2021/12/29 11:46:37;;;;;;;3.60;2.97;;;8.90;99.90;;;;;;5049821;28;21012;-74
2021/12/29 11:49:06;;;;;;;4.83;3.80;;;9.00;99.90;;;;;;5051813;28;20203;-69
2021/12/29 11:51:45;;;;;;;3.90;3.10;;;9.00;99.90;;;;;;5050913;28;20218;-73
2021/12/29 11:54:18;;;;;;;3.30;3.00;;;9.00;99.90;;;;;;5048046;28;20246;-79
2021/12/29 11:56:53;;;;;;;5.70;3.50;;;9.00;99.90;;;;;;5054624;28;20274;-80
2021/12/29 11:59:33;;;;;;;5.10;3.77;;;9.10;99.90;;;;;;5054521;28;20606;-80
2021/12/29 12:02:02;;;;;;;6.90;4.30;;;9.00;99.90;;;;;;5053983;28;20203;-80
2021/12/29 12:04:29;;;;;;;5.17;4.20;;;9.10;99.90;;;;;;5037094;28;20219;-79
2021/12/29 12:09:51;;;;;;;8.10;5.17;;;9.10;99.90;;;;;;5052574;28;20336;-79
2021/12/29 12:12:19;;;;;;;6.27;4.60;;;9.10;99.90;;;;;;5054045;28;20210;-80
2021/12/29 12:14:50;;;;;;;8.37;5.00;;;9.10;99.90;;;;;;5054674;28;20590;-80
2021/12/29 12:17:19;;;;;;;7.97;5.47;;;9.10;99.90;;;;;;5048454;28;20191;-80
2021/12/29 12:19:58;;;;;;;7.80;5.00;;;9.00;99.90;;;;;;5059740;28;20194;-79
2021/12/29 12:22:28;;;;;;;6.43;4.40;;;9.00;99.90;;;;;;5052746;28;20211;-79
2021/12/29 12:25:03;;;;;;;6.67;4.77;;;8.90;99.90;;;;;;5047167;28;20226;-80
2021/12/29 12:30:55;;;;;;;7.17;5.33;;;8.80;99.90;;;;;;5054510;28;20170;-79
2021/12/29 12:36:43;;;;;;;6.50;5.07;;;8.80;99.90;;;;;;5054169;28;20683;-80
2021/12/29 12:39:15;;;;;;;8.27;5.40;;;8.90;99.90;;;;;;5052848;28;20615;-79
2021/12/29 12:41:45;;;;;;;7.90;5.73;;;8.90;99.90;;;;;;5051301;28;20663;-79
2021/12/29 12:44:12;;;;;;;8.00;5.20;;;8.90;99.90;;;;;;5045288;28;20738;-79
2021/12/29 12:46:42;;;;;;;7.13;5.23;;;8.90;99.90;;;;;;5042034;28;20207;-79
2021/12/29 12:49:18;;;;;;;6.50;5.20;;;8.90;99.90;;;;;;5036019;28;20241;-79
2021/12/29 12:51:56;;;;;;;8.30;4.77;;;8.90;99.90;;;;;;5048486;28;20287;-79
2021/12/29 12:54:27;;;;;;;6.40;4.20;;;8.90;99.90;;;;;;5032060;28;20211;-80
2021/12/29 12:56:56;;;;;;;5.43;4.07;;;8.90;99.90;;;;;;5053398;28;20206;-79
2021/12/29 12:59:35;;;;;;;5.37;4.20;;;9.00;99.90;;;;;;5052523;28;20233;-79
2021/12/29 13:02:13;;;;;;;4.33;3.47;;;9.00;99.90;;;;;;5034161;28;20256;-79
2021/12/29 13:04:44;;;;;;;3.63;3.00;;;9.00;99.90;;;;;;5050156;28;20640;-79
2021/12/29 13:07:22;;;;;;;5.00;3.20;;;9.10;99.90;;;;;;5051448;28;20195;-80
2021/12/29 13:09:50;;;;;;;5.17;3.60;;;9.10;99.90;;;;;;5051581;28;20206;-79
2021/12/29 13:12:26;;;;;;;5.57;3.73;;;9.10;99.90;;;;;;5045687;28;20612;-80